KLIT/LIT METAR and TAF weather

Enter ICAO airport designator
Station Type Date Time Source
KLIT METAR 2020/04/05 21:53 UTC NOAA

KLIT 052153Z 13005KT 10SM BKN045 BKN100 BKN250 22/13 A3004 RMK AO2 SLP175 T02170128


Station Type Date Time Source
KLIT Decoded METAR 2020/04/05 21:53 UTC NOAA

LITTLE ROCK ADAMS FIELD, AR, United States (KLIT) 34-44N 92-14W 79M
Apr 05, 2020 - 05:53 PM EDT / 2020.04.05 2153 UTC
Wind: from the SE (130 degrees) at 6 MPH (5 KT):0
Visibility: 10 mile(s):0
Sky conditions: mostly cloudy
Temperature: 71.1 F (21.7 C)
Dew Point: 55.0 F (12.8 C)
Relative Humidity: 56%
Pressure (altimeter): 30.04 in. Hg (1017 hPa)
ob: KLIT 052153Z 13005KT 10SM BKN045 BKN100 BKN250 22/13 A3004 RMK AO2 SLP175 T02170128
cycle: 22

Station Type Date Time Source
KLIT TAF 2020/04/05 18:22 UTC NOAA

TAF KLIT 051720Z 0518/0618 10004KT P6SM FEW035 OVC250
FM061000 07003KT P6SM OVC015
FM061400 18007KT P6SM OVC050

Example: see airport list